sensor_id;sensor_type;location;lat;lon;timestamp;pressure;altitude;pressure_sealevel;temperature;humidity
75188;BME280;63762;51.334;22.108;2023-02-15T00:02:22;103473.17;;;4.05;82.47
75188;BME280;63762;51.334;22.108;2023-02-15T00:12:29;103473.96;;;4.13;82.15
75188;BME280;63762;51.334;22.108;2023-02-15T00:22:36;103466.89;;;4.11;82.10
75188;BME280;63762;51.334;22.108;2023-02-15T00:32:43;103459.83;;;4.08;82.15
75188;BME280;63762;51.334;22.108;2023-02-15T00:42:51;103461.68;;;3.97;82.53
75188;BME280;63762;51.334;22.108;2023-02-15T00:52:58;103447.44;;;4.01;82.61
75188;BME280;63762;51.334;22.108;2023-02-15T01:03:05;103445.55;;;4.15;82.24
75188;BME280;63762;51.334;22.108;2023-02-15T01:13:12;103446.51;;;4.08;81.99
75188;BME280;63762;51.334;22.108;2023-02-15T01:23:19;103443.92;;;3.99;82.57
75188;BME280;63762;51.334;22.108;2023-02-15T01:33:26;103429.76;;;3.93;82.66
75188;BME280;63762;51.334;22.108;2023-02-15T01:43:40;103419.07;;;3.97;82.88
75188;BME280;63762;51.334;22.108;2023-02-15T01:53:45;103409.33;;;3.96;82.54
75188;BME280;63762;51.334;22.108;2023-02-15T02:04:07;103410.27;;;3.92;83.01
75188;BME280;63762;51.334;22.108;2023-02-15T02:14:04;103410.12;;;4.04;82.37
75188;BME280;63762;51.334;22.108;2023-02-15T02:34:30;103393.27;;;4.05;82.22
75188;BME280;63762;51.334;22.108;2023-02-15T02:44:41;103391.45;;;4.06;81.97
75188;BME280;63762;51.334;22.108;2023-02-15T02:54:46;103388.76;;;4.10;81.92
75188;BME280;63762;51.334;22.108;2023-02-15T03:04:50;103383.42;;;4.10;81.52
75188;BME280;63762;51.334;22.108;2023-02-15T03:15:09;103374.68;;;3.99;81.99
75188;BME280;63762;51.334;22.108;2023-02-15T03:25:17;103383.66;;;3.91;82.08
75188;BME280;63762;51.334;22.108;2023-02-15T03:35:23;103387.30;;;3.81;82.22
75188;BME280;63762;51.334;22.108;2023-02-15T03:45:30;103375.77;;;3.79;82.69
75188;BME280;63762;51.334;22.108;2023-02-15T03:55:34;103389.06;;;3.80;82.65
75188;BME280;63762;51.334;22.108;2023-02-15T04:05:35;103368.68;;;3.79;82.66
75188;BME280;63762;51.334;22.108;2023-02-15T04:15:36;103378.47;;;3.74;82.44
75188;BME280;63762;51.334;22.108;2023-02-15T04:25:49;103376.74;;;3.70;82.59
75188;BME280;63762;51.334;22.108;2023-02-15T04:35:50;103376.76;;;3.69;82.73
75188;BME280;63762;51.334;22.108;2023-02-15T04:45:51;103374.13;;;3.64;83.08
75188;BME280;63762;51.334;22.108;2023-02-15T04:55:52;103366.16;;;3.61;82.93
75188;BME280;63762;51.334;22.108;2023-02-15T05:05:56;103379.45;;;3.66;82.44
75188;BME280;63762;51.334;22.108;2023-02-15T05:16:03;103383.77;;;3.77;81.72
75188;BME280;63762;51.334;22.108;2023-02-15T05:26:17;103391.78;;;3.74;80.96
75188;BME280;63762;51.334;22.108;2023-02-15T05:36:30;103413.04;;;3.79;81.09
75188;BME280;63762;51.334;22.108;2023-02-15T05:46:32;103397.98;;;3.76;80.93
75188;BME280;63762;51.334;22.108;2023-02-15T05:56:33;103420.10;;;3.81;80.92
75188;BME280;63762;51.334;22.108;2023-02-15T06:06:39;103412.17;;;3.75;80.96
75188;BME280;63762;51.334;22.108;2023-02-15T06:16:46;103418.40;;;3.74;81.12
75188;BME280;63762;51.334;22.108;2023-02-15T06:26:53;103419.27;;;3.79;80.62
75188;BME280;63762;51.334;22.108;2023-02-15T06:37:00;103420.20;;;3.69;81.45
75188;BME280;63762;51.334;22.108;2023-02-15T06:47:08;103420.18;;;3.74;80.84
75188;BME280;63762;51.334;22.108;2023-02-15T06:57:15;103423.70;;;3.76;80.57
75188;BME280;63762;51.334;22.108;2023-02-15T07:07:22;103412.17;;;3.75;79.58
75188;BME280;63762;51.334;22.108;2023-02-15T07:17:29;103408.64;;;3.76;79.87
75188;BME280;63762;51.334;22.108;2023-02-15T07:27:36;103404.06;;;3.89;79.53
75188;BME280;63762;51.334;22.108;2023-02-15T07:37:43;103411.29;;;3.78;79.01
75188;BME280;63762;51.334;22.108;2023-02-15T07:47:51;103409.44;;;3.83;77.25
75188;BME280;63762;51.334;22.108;2023-02-15T07:57:57;103407.73;;;3.77;77.43
75188;BME280;63762;51.334;22.108;2023-02-15T08:08:05;103394.34;;;3.86;76.84
75188;BME280;63762;51.334;22.108;2023-02-15T08:18:12;103394.21;;;3.97;76.05
75188;BME280;63762;51.334;22.108;2023-02-15T08:28:19;103396.09;;;3.87;77.16
75188;BME280;63762;51.334;22.108;2023-02-15T08:38:26;103403.75;;;4.19;76.21
75188;BME280;63762;51.334;22.108;2023-02-15T08:48:34;103402.91;;;4.15;76.17
75188;BME280;63762;51.334;22.108;2023-02-15T08:58:40;103395.77;;;4.17;76.27
75188;BME280;63762;51.334;22.108;2023-02-15T09:08:48;103393.80;;;4.37;74.90
75188;BME280;63762;51.334;22.108;2023-02-15T09:18:55;103386.79;;;4.26;76.16
75188;BME280;63762;51.334;22.108;2023-02-15T09:29:02;103389.39;;;4.32;75.48
75188;BME280;63762;51.334;22.108;2023-02-15T09:39:14;103388.50;;;4.34;74.87
75188;BME280;63762;51.334;22.108;2023-02-15T10:30:16;103339.41;;;4.53;72.57
75188;BME280;63762;51.334;22.108;2023-02-15T11:00:50;103316.52;;;4.37;74.73
75188;BME280;63762;51.334;22.108;2023-02-15T11:11:04;103309.84;;;4.68;74.82
75188;BME280;63762;51.334;22.108;2023-02-15T11:33:37;103298.01;;;4.88;72.69
75188;BME280;63762;51.334;22.108;2023-02-15T11:43:49;103280.77;;;5.10;71.19
75188;BME280;63762;51.334;22.108;2023-02-15T11:53:51;103275.16;;;4.70;71.94
75188;BME280;63762;51.334;22.108;2023-02-15T12:04:01;103261.59;;;4.87;72.22
75188;BME280;63762;51.334;22.108;2023-02-15T12:14:09;103240.82;;;5.05;73.46
75188;BME280;63762;51.334;22.108;2023-02-15T12:24:20;103230.75;;;5.21;71.49
75188;BME280;63762;51.334;22.108;2023-02-15T12:34:30;103224.23;;;5.37;69.64
75188;BME280;63762;51.334;22.108;2023-02-15T12:44:36;103217.28;;;5.28;70.69
75188;BME280;63762;51.334;22.108;2023-02-15T12:54:42;103216.70;;;5.58;71.07
75188;BME280;63762;51.334;22.108;2023-02-15T13:04:48;103192.23;;;5.81;69.85
75188;BME280;63762;51.334;22.108;2023-02-15T13:14:52;103187.55;;;5.92;68.47
75188;BME280;63762;51.334;22.108;2023-02-15T13:25:01;103184.23;;;6.22;68.88
75188;BME280;63762;51.334;22.108;2023-02-15T13:35:05;103157.88;;;6.43;67.55
75188;BME280;63762;51.334;22.108;2023-02-15T13:55:32;103140.05;;;6.44;66.79
75188;BME280;63762;51.334;22.108;2023-02-15T14:15:58;103129.08;;;6.54;66.55
75188;BME280;63762;51.334;22.108;2023-02-15T14:26:14;103125.37;;;6.60;66.29
75188;BME280;63762;51.334;22.108;2023-02-15T14:36:17;103115.48;;;6.63;65.31
75188;BME280;63762;51.334;22.108;2023-02-15T14:56:33;103110.17;;;6.62;65.41
75188;BME280;63762;51.334;22.108;2023-02-15T15:06:37;103108.38;;;6.62;65.43
75188;BME280;63762;51.334;22.108;2023-02-15T15:16:48;103100.09;;;6.73;64.93
75188;BME280;63762;51.334;22.108;2023-02-15T15:57:33;103078.37;;;5.77;66.68
75188;BME280;63762;51.334;22.108;2023-02-15T16:07:35;103079.00;;;5.47;67.86
75188;BME280;63762;51.334;22.108;2023-02-15T16:17:36;103067.21;;;5.16;67.97
75188;BME280;63762;51.334;22.108;2023-02-15T16:27:42;103069.44;;;4.94;68.33
75188;BME280;63762;51.334;22.108;2023-02-15T16:37:44;103061.87;;;4.70;69.16
75188;BME280;63762;51.334;22.108;2023-02-15T16:47:49;103064.80;;;4.55;69.55
75188;BME280;63762;51.334;22.108;2023-02-15T16:57:56;103050.87;;;4.39;69.75
75188;BME280;63762;51.334;22.108;2023-02-15T17:18:20;103026.60;;;4.04;70.66
75188;BME280;63762;51.334;22.108;2023-02-15T17:28:26;103024.27;;;3.85;70.68
75188;BME280;63762;51.334;22.108;2023-02-15T17:38:28;103022.75;;;3.67;71.28
75188;BME280;63762;51.334;22.108;2023-02-15T17:48:35;103016.86;;;3.47;72.05
75188;BME280;63762;51.334;22.108;2023-02-15T17:58:37;103017.93;;;3.34;72.14
75188;BME280;63762;51.334;22.108;2023-02-15T18:08:39;103010.13;;;3.19;72.37
75188;BME280;63762;51.334;22.108;2023-02-15T18:18:52;103004.10;;;3.07;72.84
75188;BME280;63762;51.334;22.108;2023-02-15T18:28:54;103000.73;;;2.91;73.08
75188;BME280;63762;51.334;22.108;2023-02-15T18:38:55;102994.60;;;2.86;74.18
75188;BME280;63762;51.334;22.108;2023-02-15T18:48:57;102991.00;;;2.90;75.28
75188;BME280;63762;51.334;22.108;2023-02-15T18:58:58;102981.98;;;3.03;76.01
75188;BME280;63762;51.334;22.108;2023-02-15T19:08:59;102965.86;;;3.17;75.80
75188;BME280;63762;51.334;22.108;2023-02-15T19:19:02;102956.86;;;3.25;75.63
75188;BME280;63762;51.334;22.108;2023-02-15T19:29:12;102953.30;;;3.26;75.43
75188;BME280;63762;51.334;22.108;2023-02-15T19:39:24;102941.81;;;3.23;75.55
75188;BME280;63762;51.334;22.108;2023-02-15T19:49:25;102925.94;;;3.18;75.70
75188;BME280;63762;51.334;22.108;2023-02-15T19:59:32;102917.13;;;3.13;75.76
75188;BME280;63762;51.334;22.108;2023-02-15T20:09:38;102912.77;;;3.09;75.85
75188;BME280;63762;51.334;22.108;2023-02-15T20:19:45;102896.86;;;3.06;75.77
75188;BME280;63762;51.334;22.108;2023-02-15T20:29:52;102893.32;;;3.04;75.56
75188;BME280;63762;51.334;22.108;2023-02-15T20:39:59;102881.98;;;2.93;75.58
75188;BME280;63762;51.334;22.108;2023-02-15T20:50:06;102876.66;;;2.93;75.32
75188;BME280;63762;51.334;22.108;2023-02-15T21:00:19;102865.25;;;2.85;75.08
75188;BME280;63762;51.334;22.108;2023-02-15T21:10:23;102869.01;;;2.69;75.09
75188;BME280;63762;51.334;22.108;2023-02-15T21:20:29;102852.21;;;2.69;75.06
75188;BME280;63762;51.334;22.108;2023-02-15T21:30:35;102846.79;;;2.76;74.67
75188;BME280;63762;51.334;22.108;2023-02-15T21:40:43;102836.29;;;2.66;74.81
75188;BME280;63762;51.334;22.108;2023-02-15T21:50:49;102828.28;;;2.69;74.70
75188;BME280;63762;51.334;22.108;2023-02-15T22:01:02;102822.94;;;2.72;74.67
75188;BME280;63762;51.334;22.108;2023-02-15T22:11:10;102825.52;;;2.78;74.14
75188;BME280;63762;51.334;22.108;2023-02-15T22:21:13;102806.92;;;2.76;74.09
75188;BME280;63762;51.334;22.108;2023-02-15T22:31:20;102802.75;;;2.59;74.83
75188;BME280;63762;51.334;22.108;2023-02-15T22:41:28;102793.16;;;2.47;75.32
75188;BME280;63762;51.334;22.108;2023-02-15T22:51:32;102793.98;;;2.51;75.20
75188;BME280;63762;51.334;22.108;2023-02-15T23:01:39;102783.44;;;2.45;75.13
75188;BME280;63762;51.334;22.108;2023-02-15T23:11:48;102772.00;;;2.41;75.17
75188;BME280;63762;51.334;22.108;2023-02-15T23:21:53;102779.80;;;2.52;74.91
75188;BME280;63762;51.334;22.108;2023-02-15T23:32:00;102765.78;;;2.42;74.91
75188;BME280;63762;51.334;22.108;2023-02-15T23:52:19;102727.77;;;2.37;74.68
